Latest Weather Observations for Viewbank

IDV60901

Issued at 5:15 pm EDT Thursday 23 October 2014 (issued every 10 minutes, with the page automatically refreshed every 10 minutes)

About weather observations | Map of Melbourne area stations | Latest observations for Melbourne area | Other Formats
Station Details ID: 086068 Name: VIEWBANK Lat: -37.74 Lon: 145.10 Height: 66.1 m
Data from the previous 72 hours. | See also: Recent months at Viewbank
Date/Time
EDT
Tmp

°C
App
Tmp
°C
Dew
Point
°C
Rel
Hum
%
Delta-T

°C
Wind Press
QNH
hPa
Press
MSL
hPa
Rain
since
9 am
mm
Dir
 
Spd
km/h
Gust
km/h
Spd
kts
Gust
kts
23/05:00pm 20.9 19.4 14.3 66 3.9 WSW 15 24 8 13 1015.2 1015.1 0.0
23/04:30pm 21.0 19.6 14.4 66 3.9 SW 15 24 8 13 1015.6 1015.5 0.0
23/04:00pm 21.3 20.0 14.9 67 3.8 SW 15 22 8 12 1015.8 1015.7 0.0
23/03:30pm 21.5 20.6 14.9 66 3.9 S 13 22 7 12 1016.2 1016.1 0.0
23/03:00pm 20.7 20.0 15.3 71 3.2 SSW 13 20 7 11 1016.7 1016.6 0.0
23/02:30pm 19.7 19.3 14.1 70 3.2 S 9 17 5 9 1017.4 1017.4 0.0
23/02:00pm 18.9 18.5 14.2 74 2.7 SSE 9 19 5 10 1017.8 1017.8 0.0
23/01:30pm 17.7 17.1 13.6 77 2.3 S 9 17 5 9 1018.2 1018.2 0.0
23/01:00pm 17.8 16.9 13.7 77 2.3 S 11 19 6 10 1018.6 1018.6 0.0
23/12:30pm 17.3 16.8 13.8 80 2.0 S 9 17 5 9 1018.9 1018.9 0.0
23/12:00pm 16.9 16.6 13.2 79 2.1 SSE 7 17 4 9 1019.4 1019.4 0.0
23/11:30am 16.8 16.2 13.5 81 1.9 S 9 13 5 7 1019.6 1019.6 0.0
23/11:00am 16.4 16.4 13.5 83 1.6 SSE 6 13 3 7 1020.1 1020.1 0.0
23/10:30am 16.1 16.1 14.1 88 1.1 SSE 7 13 4 7 1020.2 1020.2 0.0
23/10:00am 15.4 15.0 15.2 99 0.1 S 11 15 6 8 1020.1 1020.1 0.0
23/09:30am 14.8 15.0 14.8 100 0.0 SSW 7 9 4 5 1020.4 1020.4 0.0
23/09:00am 14.7 14.9 14.7 100 0.0 SSW 7 11 4 6 1020.4 1020.4 0.0
23/08:30am 14.4 14.1 14.4 100 0.0 SSW 9 11 5 6 1020.5 1020.5 0.0
23/08:00am 14.5 13.9 14.5 100 0.0 SSW 11 17 6 9 1020.2 1020.2 0.0
23/07:30am 14.7 14.1 14.5 99 0.1 S 11 17 6 9 1019.9 1019.9 0.0
23/07:00am 14.7 14.4 14.5 99 0.1 SSW 9 13 5 7 1019.7 1019.7 0.0
23/06:30am 14.7 14.8 14.5 99 0.1 SW 7 13 4 7 1019.4 1019.4 0.0
23/06:00am 14.7 14.4 14.5 99 0.1 SW 9 13 5 7 1019.2 1019.2 0.0
23/05:30am 14.6 14.7 14.4 99 0.1 SW 7 13 4 7 1018.9 1018.9 0.0
23/05:00am 14.6 14.3 14.4 99 0.1 SW 9 13 5 7 1018.5 1018.5 0.0
23/04:30am 14.6 13.5 14.4 99 0.1 SW 13 19 7 10 1018.6 1018.6 0.0
23/04:00am 14.5 13.4 14.3 99 0.1 SW 13 19 7 10 1018.2 1018.2 0.0
23/03:30am 14.7 13.7 14.5 99 0.1 SW 13 20 7 11 1018.5 1018.5 0.0
23/03:00am 14.9 14.3 14.7 99 0.1 SW 11 19 6 10 1018.9 1018.9 0.0
23/02:30am 15.1 14.6 14.9 99 0.1 SSW 11 17 6 9 1019.2 1019.2 0.0
23/02:00am 15.2 15.1 15.0 99 0.1 SW 9 15 5 8 1019.1 1019.1 0.0
23/01:30am 15.0 15.4 14.7 98 0.2 W 6 11 3 6 1019.4 1019.4 0.0
23/01:00am 15.1 16.2 14.5 96 0.3 WSW 2 7 1 4 1018.9 1018.9 0.0
23/12:30am 15.4 14.8 14.6 95 0.5 S 11 19 6 10 1018.8 1018.8 0.0
23/12:00am 15.3 14.8 14.8 97 0.3 S 11 20 6 11 1019.2 1019.2 0.0
 
Date/Time
EDT
Tmp

°C
App
Tmp
°C
Dew
Point
°C
Rel
Hum
%
Delta-T

°C
Wind Press
QNH
hPa
Press
MSL
hPa
Rain
since
9 am
mm
Dir
 
Spd
km/h
Gust
km/h
Spd
kts
Gust
kts
22/11:30pm 15.5 15.4 15.0 97 0.3 SSW 9 13 5 7 1019.0 1019.0 0.0
22/11:00pm 15.8 14.2 14.0 89 1.0 SSW 15 26 8 14 1018.3 1018.3 0.0
22/10:30pm 17.5 15.8 12.4 72 2.8 SSW 13 22 7 12 1018.6 1018.6 0.0
22/10:00pm 19.0 15.9 12.3 65 3.7 SW 20 35 11 19 1018.3 1018.3 0.0
22/09:30pm 22.2 19.0 11.9 52 5.8 WSW 20 26 11 14 1017.9 1017.9 0.0
22/09:00pm 26.2 23.8 11.5 40 8.4 W 15 24 8 13 1016.6 1016.5 0.0
22/08:30pm 26.7 26.1 11.6 39 8.6 N 6 11 3 6 1015.6 1015.5 0.0
22/08:00pm 27.3 26.0 11.3 37 9.1 N 9 11 5 6 1015.1 1015.0 0.0
22/07:30pm 27.8 26.8 12.2 38 9.1 N 9 13 5 7 1014.9 1014.8 0.0
22/07:00pm 28.4 27.3 11.9 36 9.6 N 9 17 5 9 1014.4 1014.3 0.0
22/06:30pm 28.6 27.4 11.6 34 9.8 N 9 20 5 11 1014.3 1014.2 0.0
22/06:00pm 29.6 27.1 11.2 32 10.6 N 15 24 8 13 1014.6 1014.5 0.0
22/05:30pm 30.1 26.6 10.1 29 11.4 NNW 19 28 10 15 1014.8 1014.7 0.0
22/05:00pm 30.6 28.0 9.5 27 11.9 N 13 20 7 11 1014.7 1014.6 0.0
22/04:30pm 30.8 27.8 9.1 26 12.2 N 15 24 8 13 1014.9 1014.8 0.0
22/04:00pm 31.4 29.6 10.7 28 11.9 N 11 19 6 10 1015.1 1015.0 0.0
22/03:30pm 31.3 29.3 10.1 27 12.1 N 11 20 6 11 1015.3 1015.2 0.0
22/03:00pm 31.5 30.1 10.8 28 12.0 N 9 20 5 11 1015.7 1015.6 0.0
22/02:30pm 30.5 28.2 10.5 29 11.5 NNE 13 22 7 12 1016.1 1016.0 0.0
22/02:00pm 30.6 28.5 11.1 30 11.3 NNE 13 19 7 10 1016.5 1016.4 0.0
22/01:30pm 30.1 28.0 11.1 31 11.0 N 13 24 7 13 1017.1 1017.0 0.0
22/01:00pm 28.9 27.0 11.9 35 9.9 NE 13 22 7 12 1017.3 1017.3 0.0
22/12:30pm 28.5 27.2 12.4 37 9.4 NE 11 19 6 10 1017.6 1017.6 0.0
22/12:00pm 27.9 24.9 10.6 34 9.8 N 17 28 9 15 1018.2 1018.2 0.0
22/11:30am 26.8 23.7 12.1 40 8.5 N 20 35 11 19 1018.9 1018.9 0.0
22/11:00am 26.2 24.1 11.2 39 8.5 N 13 26 7 14 1019.5 1019.5 0.0
22/10:30am 25.6 24.2 12.1 43 7.8 NNE 11 19 6 10 1019.4 1019.4 0.0
22/10:00am 24.3 22.6 11.3 44 7.3 NNE 11 19 6 10 1019.6 1019.6 0.0
22/09:30am 23.5 21.9 11.5 47 6.8 NNE 11 20 6 11 1019.7 1019.7 0.0
22/09:00am 21.5 20.9 12.4 56 5.1 ENE 7 9 4 5 1019.7 1019.7 0.0
22/08:30am 19.6 19.1 12.1 62 4.2 ENE 6 7 3 4 1020.0 1020.0 0.0
22/08:00am 15.9 15.4 12.1 78 2.1 NE 6 9 3 5 1019.9 1019.9 0.0
22/07:30am 13.9 14.3 11.2 84 1.4 CALM 0 0 0 0 1020.1 1020.1 0.0
22/07:00am 12.9 12.9 11.3 90 0.8 NE 2 6 1 3 1020.1 1020.1 0.0
22/06:30am 12.3 11.9 11.0 92 0.7 NNE 4 7 2 4 1020.0 1020.0 0.0
22/06:00am 12.7 11.9 11.8 94 0.5 ENE 7 9 4 5 1020.0 1020.0 0.0
22/05:30am 12.5 11.5 11.1 91 0.7 NE 7 9 4 5 1019.8 1019.8 0.0
22/05:00am 12.9 12.2 11.3 90 0.8 NE 6 7 3 4 1019.7 1019.7 0.0
22/04:30am 13.1 12.4 11.3 89 1.0 NNE 6 7 3 4 1019.7 1019.7 0.0
22/04:00am 13.2 12.5 11.3 88 1.0 NE 6 7 3 4 1019.8 1019.8 0.0
22/03:30am 13.5 12.7 11.7 89 1.0 NE 7 9 4 5 1020.3 1020.3 0.0
22/03:00am 13.5 13.3 11.7 89 1.0 ENE 4 7 2 4 1020.4 1020.4 0.0
22/02:30am 14.3 14.0 11.6 84 1.4 ENE 4 6 2 3 1020.7 1020.7 0.0
22/02:00am 15.1 14.6 12.2 83 1.6 ENE 6 6 3 3 1020.9 1020.9 0.0
22/01:30am 15.4 14.8 12.3 82 1.7 ENE 7 9 4 5 1021.1 1021.1 0.0
22/01:00am 15.8 14.7 12.0 78 2.1 ENE 9 13 5 7 1021.6 1021.6 0.0
22/12:30am 16.1 14.8 11.3 73 2.6 ENE 9 11 5 6 1022.0 1022.0 0.0
22/12:00am 16.9 16.1 11.2 69 3.1 NE 6 7 3 4 1022.4 1022.4 0.0
 
Date/Time
EDT
Tmp

°C
App
Tmp
°C
Dew
Point
°C
Rel
Hum
%
Delta-T

°C
Wind Press
QNH
hPa
Press
MSL
hPa
Rain
since
9 am
mm
Dir
 
Spd
km/h
Gust
km/h
Spd
kts
Gust
kts
21/11:30pm 17.7 17.4 11.5 67 3.4 NNW 4 6 2 3 1022.7 1022.7 0.0
21/11:00pm 18.1 17.7 11.0 63 3.8 NE 4 7 2 4 1022.7 1022.7 0.0
21/10:30pm 19.1 18.3 11.2 60 4.3 NE 6 9 3 5 1022.9 1022.9 0.0
21/10:00pm 19.3 18.6 10.0 55 5.0 NE 4 9 2 5 1022.8 1022.8 0.0
21/09:30pm 21.4 20.6 9.6 47 6.4 N 4 7 2 4 1022.7 1022.7 0.0
21/09:00pm 22.1 20.9 9.6 45 6.7 N 6 9 3 5 1022.5 1022.5 0.0
21/08:30pm 23.0 22.9 9.4 42 7.4 CALM 0 4 0 2 1022.3 1022.3 0.0
21/08:00pm 24.5 22.9 8.9 37 8.4 N 7 9 4 5 1022.2 1022.2 0.0
21/07:30pm 25.0 23.1 8.9 36 8.7 NNW 9 15 5 8 1022.0 1022.0 0.0
21/07:00pm 25.8 23.7 9.6 36 8.9 NW 11 17 6 9 1021.9 1021.9 0.0
21/06:30pm 26.6 24.2 9.9 35 9.3 NNW 13 17 7 9 1021.8 1021.8 0.0
21/06:00pm 27.4 25.0 10.2 34 9.6 WNW 13 20 7 11 1021.8 1021.8 0.0
21/05:30pm 27.4 25.3 8.3 30 10.4 N 9 15 5 8 1021.9 1021.9 0.0
21/05:00pm 27.6 26.1 9.0 31 10.2 NNE 7 13 4 7 1022.1 1022.1 0.0
21/04:30pm 27.5 25.8 9.8 33 9.9 SW 9 13 5 7 1022.1 1022.1 0.0
21/04:00pm 27.3 25.7 8.7 31 10.1 NW 7 13 4 7 1022.6 1022.6 0.0
21/03:30pm 27.0 25.2 9.4 33 9.7 ENE 9 15 5 8 1022.9 1022.9 0.0
21/03:00pm 26.8 25.2 8.7 32 9.8 NNE 7 13 4 7 1023.4 1023.4 0.0
21/02:30pm 26.3 25.0 10.0 36 9.1 NE 7 17 4 9 1023.9 1023.9 0.0
21/02:00pm 26.5 25.5 10.2 36 9.1 ENE 6 7 3 4 1024.4 1024.4 0.0
21/01:30pm 25.4 24.1 11.2 41 8.0 N 9 17 5 9 1024.8 1024.8 0.0
21/01:00pm 24.5 22.7 10.8 42 7.6 NNW 11 19 6 10 1025.3 1025.3 0.0
21/12:30pm 24.3 22.1 9.5 39 8.1 NNE 11 24 6 13 1025.5 1025.5 0.0
21/12:00pm 22.4 21.2 10.2 46 6.6 E 7 15 4 8 1025.9 1025.9 0.0
21/11:30am 21.0 19.4 10.2 50 5.9 ENE 9 13 5 7 1026.5 1026.5 0.0
21/11:00am 18.9 17.7 9.4 54 5.0 NNE 6 7 3 4 1027.0 1027.0 0.0
21/10:30am 17.5 16.4 9.9 61 4.0 E 6 9 3 5 1027.2 1027.2 0.0
21/10:00am 15.7 13.8 8.9 64 3.5 ENE 9 13 5 7 1027.6 1027.6 0.0
21/09:30am 13.9 11.9 8.5 70 2.7 E 9 15 5 8 1027.6 1027.6 0.0
21/09:00am 12.1 9.6 8.2 77 1.9 E 11 17 6 9 1027.6 1027.6 0.0
21/08:30am 10.8 9.3 8.6 86 1.1 E 6 9 3 5 1027.6 1027.6 0.0
21/08:00am 9.0 7.6 8.9 99 0.0 ENE 6 7 3 4 1027.2 1027.2 0.0
21/07:30am 6.8 4.9 6.8 100 0.0 ENE 6 7 3 4 1027.1 1027.1 0.0
21/07:00am 5.3 4.2 5.3 100 0.0 CALM 0 7 0 4 1026.8 1026.8 0.0
21/06:30am 5.5 4.1 5.4 99 0.0 NNE 2 6 1 3 1026.7 1026.7 0.0
21/06:00am 5.7 4.7 5.6 99 0.0 CALM 0 0 0 0 1026.4 1026.4 0.0
21/05:30am 5.9 4.2 5.8 99 0.0 NNE 4 7 2 4 1026.2 1026.2 0.0
21/05:00am 6.2 5.3 6.1 99 0.0 CALM 0 6 0 3 1026.2 1026.2 0.0
21/04:30am 6.6 5.8 6.5 99 0.0 CALM 0 0 0 0 1026.3 1026.3 0.0
21/04:00am 7.0 5.1 6.9 99 0.0 N 6 7 3 4 1026.5 1026.5 0.0
21/03:30am 7.4 6.8 7.3 99 0.0 CALM 0 0 0 0 1026.3 1026.3 0.0
21/03:00am 7.7 6.2 7.0 95 0.3 N 4 6 2 3 1026.4 1026.4 0.0
21/02:30am 8.0 7.0 7.4 96 0.3 NNE 2 7 1 4 1026.5 1026.5 0.0
21/02:00am 8.4 6.6 7.0 91 0.6 NNE 6 7 3 4 1026.7 1026.7 0.0
21/01:30am 9.1 7.2 7.7 91 0.7 N 7 11 4 6 1026.9 1026.9 0.0
21/01:00am 9.2 7.9 7.5 89 0.8 N 4 7 2 4 1027.0 1027.0 0.0
21/12:30am 9.8 9.2 7.4 85 1.1 CALM 0 0 0 0 1027.1 1027.1 0.0
21/12:00am 10.4 9.7 6.9 79 1.6 CALM 0 0 0 0 1027.2 1027.2 0.0
 
Date/Time
EDT
Tmp

°C
App
Tmp
°C
Dew
Point
°C
Rel
Hum
%
Delta-T

°C
Wind Press
QNH
hPa
Press
MSL
hPa
Rain
since
9 am
mm
Dir
 
Spd
km/h
Gust
km/h
Spd
kts
Gust
kts
20/11:30pm 11.0 9.2 7.1 77 1.9 WSW 6 6 3 3 1027.3 1027.3 0.0
20/11:00pm 11.4 9.6 7.3 76 2.0 SW 6 6 3 3 1027.3 1027.3 0.0
20/10:30pm 11.7 9.7 7.0 73 2.3 SSW 7 7 4 4 1027.2 1027.2 0.0
20/10:00pm 12.2 10.4 7.1 71 2.4 SSW 6 9 3 5 1027.3 1027.3 0.0
20/09:30pm 12.9 11.0 7.4 69 2.7 SSW 7 11 4 6 1027.2 1027.2 0.0
20/09:00pm 13.7 11.5 7.7 67 2.9 SSW 9 15 5 8 1027.1 1027.1 0.0
20/08:30pm 14.0 11.7 7.5 65 3.2 S 9 13 5 7 1026.6 1026.6 0.0
20/08:00pm 14.9 12.7 7.7 62 3.6 S 9 15 5 8 1026.5 1026.5 0.0
20/07:30pm 16.3 14.1 7.8 57 4.3 S 9 24 5 13 1026.3 1026.3 0.0
20/07:00pm 17.4 14.0 7.7 53 4.9 S 15 26 8 14 1026.1 1026.1 0.0
20/06:30pm 18.5 15.3 7.0 47 5.8 SSE 13 26 7 14 1026.1 1026.1 0.0
20/06:00pm 19.1 15.9 6.9 45 6.1 SSE 13 19 7 10 1026.2 1026.2 0.0
20/05:30pm 19.7 16.4 6.4 42 6.7 SSE 13 24 7 13 1026.2 1026.2 0.0

Latest Capital City Observations: Canberra | Sydney | Melbourne | Brisbane | Adelaide | Perth | Hobart | Darwin

Other Formats:

Comma delimited format used in spreadsheet applications
http://www.bom.gov.au/fwo/IDV60901/IDV60901.95874.axf

JavaScript Object Notation format (JSON) in row-major order
http://www.bom.gov.au/fwo/IDV60901/IDV60901.95874.json